sensor_id;sensor_type;location;lat;lon;timestamp;P1;durP1;ratioP1;P2;durP2;ratioP2
67456;SDS011;54319;52.038;4.640;2024-03-25T00:00:09;12.60;;;2.55;;
67456;SDS011;54319;52.038;4.640;2024-03-25T00:02:37;11.80;;;2.53;;
67456;SDS011;54319;52.038;4.640;2024-03-25T00:05:02;10.10;;;1.90;;
67456;SDS011;54319;52.038;4.640;2024-03-25T00:07:31;7.45;;;2.03;;
67456;SDS011;54319;52.038;4.640;2024-03-25T00:09:58;13.53;;;2.77;;
67456;SDS011;54319;52.038;4.640;2024-03-25T00:12:26;16.33;;;2.33;;
67456;SDS011;54319;52.038;4.640;2024-03-25T00:14:52;16.80;;;3.17;;
67456;SDS011;54319;52.038;4.640;2024-03-25T00:17:18;18.75;;;2.65;;
67456;SDS011;54319;52.038;4.640;2024-03-25T00:19:44;12.63;;;2.60;;
67456;SDS011;54319;52.038;4.640;2024-03-25T00:22:17;14.20;;;2.67;;
67456;SDS011;54319;52.038;4.640;2024-03-25T00:24:42;21.23;;;2.78;;
67456;SDS011;54319;52.038;4.640;2024-03-25T00:27:13;10.43;;;2.10;;
67456;SDS011;54319;52.038;4.640;2024-03-25T00:29:39;14.25;;;2.90;;
67456;SDS011;54319;52.038;4.640;2024-03-25T00:32:07;9.40;;;2.00;;
67456;SDS011;54319;52.038;4.640;2024-03-25T00:34:33;8.45;;;2.05;;
67456;SDS011;54319;52.038;4.640;2024-03-25T00:37:01;14.32;;;3.00;;
67456;SDS011;54319;52.038;4.640;2024-03-25T00:39:27;17.67;;;2.80;;
67456;SDS011;54319;52.038;4.640;2024-03-25T00:41:54;15.25;;;2.50;;
67456;SDS011;54319;52.038;4.640;2024-03-25T00:44:21;14.75;;;2.20;;
67456;SDS011;54319;52.038;4.640;2024-03-25T00:46:50;15.55;;;3.00;;
67456;SDS011;54319;52.038;4.640;2024-03-25T00:49:17;12.05;;;2.85;;
67456;SDS011;54319;52.038;4.640;2024-03-25T00:51:46;17.33;;;2.75;;
67456;SDS011;54319;52.038;4.640;2024-03-25T00:54:12;14.90;;;2.42;;
67456;SDS011;54319;52.038;4.640;2024-03-25T00:56:38;12.32;;;2.25;;
67456;SDS011;54319;52.038;4.640;2024-03-25T00:59:04;14.25;;;2.70;;
67456;SDS011;54319;52.038;4.640;2024-03-25T01:01:32;14.40;;;2.70;;
67456;SDS011;54319;52.038;4.640;2024-03-25T01:04:00;8.65;;;2.40;;
67456;SDS011;54319;52.038;4.640;2024-03-25T01:06:27;19.73;;;3.47;;
67456;SDS011;54319;52.038;4.640;2024-03-25T01:08:53;14.20;;;2.90;;
67456;SDS011;54319;52.038;4.640;2024-03-25T01:11:19;8.13;;;2.38;;
67456;SDS011;54319;52.038;4.640;2024-03-25T01:13:46;17.13;;;3.17;;
67456;SDS011;54319;52.038;4.640;2024-03-25T01:16:14;10.40;;;3.78;;
67456;SDS011;54319;52.038;4.640;2024-03-25T01:18:41;9.10;;;2.15;;
67456;SDS011;54319;52.038;4.640;2024-03-25T01:21:08;13.43;;;2.92;;
67456;SDS011;54319;52.038;4.640;2024-03-25T01:23:35;10.35;;;2.50;;
67456;SDS011;54319;52.038;4.640;2024-03-25T01:26:01;14.65;;;2.67;;
67456;SDS011;54319;52.038;4.640;2024-03-25T01:28:27;11.90;;;2.75;;
67456;SDS011;54319;52.038;4.640;2024-03-25T01:30:53;9.77;;;2.50;;
67456;SDS011;54319;52.038;4.640;2024-03-25T01:33:19;14.48;;;2.40;;
67456;SDS011;54319;52.038;4.640;2024-03-25T01:35:47;17.88;;;2.63;;
67456;SDS011;54319;52.038;4.640;2024-03-25T01:38:13;15.35;;;2.20;;
67456;SDS011;54319;52.038;4.640;2024-03-25T01:40:40;8.80;;;2.75;;
67456;SDS011;54319;52.038;4.640;2024-03-25T01:43:05;11.88;;;2.50;;
67456;SDS011;54319;52.038;4.640;2024-03-25T01:45:33;13.07;;;3.28;;
67456;SDS011;54319;52.038;4.640;2024-03-25T01:48:01;7.40;;;2.05;;
67456;SDS011;54319;52.038;4.640;2024-03-25T01:50:29;11.73;;;2.53;;
67456;SDS011;54319;52.038;4.640;2024-03-25T01:52:58;19.35;;;3.33;;
67456;SDS011;54319;52.038;4.640;2024-03-25T01:55:26;12.38;;;2.70;;
67456;SDS011;54319;52.038;4.640;2024-03-25T01:57:54;12.32;;;2.80;;
67456;SDS011;54319;52.038;4.640;2024-03-25T02:00:21;12.63;;;2.67;;
67456;SDS011;54319;52.038;4.640;2024-03-25T02:02:49;11.85;;;2.72;;
67456;SDS011;54319;52.038;4.640;2024-03-25T02:05:18;23.25;;;3.00;;
67456;SDS011;54319;52.038;4.640;2024-03-25T02:07:44;10.48;;;1.90;;
67456;SDS011;54319;52.038;4.640;2024-03-25T02:12:40;14.07;;;2.78;;
67456;SDS011;54319;52.038;4.640;2024-03-25T02:15:08;7.18;;;2.05;;
67456;SDS011;54319;52.038;4.640;2024-03-25T02:17:34;15.63;;;2.60;;
67456;SDS011;54319;52.038;4.640;2024-03-25T02:20:00;19.35;;;3.00;;
67456;SDS011;54319;52.038;4.640;2024-03-25T02:22:27;13.02;;;2.55;;
67456;SDS011;54319;52.038;4.640;2024-03-25T02:24:54;20.23;;;2.45;;
67456;SDS011;54319;52.038;4.640;2024-03-25T02:27:24;15.30;;;2.92;;
67456;SDS011;54319;52.038;4.640;2024-03-25T02:29:53;7.15;;;2.25;;
67456;SDS011;54319;52.038;4.640;2024-03-25T02:32:18;20.27;;;2.90;;
67456;SDS011;54319;52.038;4.640;2024-03-25T02:34:46;16.23;;;2.45;;
67456;SDS011;54319;52.038;4.640;2024-03-25T02:37:16;8.95;;;2.92;;
67456;SDS011;54319;52.038;4.640;2024-03-25T02:39:43;15.93;;;2.90;;
67456;SDS011;54319;52.038;4.640;2024-03-25T02:42:09;12.18;;;2.65;;
67456;SDS011;54319;52.038;4.640;2024-03-25T02:44:37;9.87;;;2.47;;
67456;SDS011;54319;52.038;4.640;2024-03-25T02:47:03;10.52;;;2.55;;
67456;SDS011;54319;52.038;4.640;2024-03-25T02:49:31;15.95;;;3.78;;
67456;SDS011;54319;52.038;4.640;2024-03-25T02:51:58;13.93;;;2.72;;
67456;SDS011;54319;52.038;4.640;2024-03-25T02:54:25;12.38;;;2.60;;
67456;SDS011;54319;52.038;4.640;2024-03-25T02:56:52;15.97;;;3.00;;
67456;SDS011;54319;52.038;4.640;2024-03-25T02:59:21;12.13;;;3.17;;
67456;SDS011;54319;52.038;4.640;2024-03-25T03:01:50;18.40;;;3.08;;
67456;SDS011;54319;52.038;4.640;2024-03-25T03:04:17;14.15;;;2.90;;
67456;SDS011;54319;52.038;4.640;2024-03-25T03:06:42;20.73;;;3.03;;
67456;SDS011;54319;52.038;4.640;2024-03-25T03:09:10;17.02;;;3.13;;
67456;SDS011;54319;52.038;4.640;2024-03-25T03:11:35;12.35;;;2.75;;
67456;SDS011;54319;52.038;4.640;2024-03-25T03:14:02;16.65;;;3.55;;
67456;SDS011;54319;52.038;4.640;2024-03-25T03:16:27;11.63;;;2.72;;
67456;SDS011;54319;52.038;4.640;2024-03-25T03:18:57;9.88;;;2.92;;
67456;SDS011;54319;52.038;4.640;2024-03-25T03:21:22;11.10;;;2.85;;
67456;SDS011;54319;52.038;4.640;2024-03-25T03:23:49;8.87;;;2.30;;
67456;SDS011;54319;52.038;4.640;2024-03-25T03:26:15;15.68;;;3.10;;
67456;SDS011;54319;52.038;4.640;2024-03-25T03:28:41;22.05;;;3.30;;
67456;SDS011;54319;52.038;4.640;2024-03-25T03:31:07;14.88;;;2.92;;
67456;SDS011;54319;52.038;4.640;2024-03-25T03:33:34;13.55;;;3.20;;
67456;SDS011;54319;52.038;4.640;2024-03-25T03:36:01;21.45;;;3.45;;
67456;SDS011;54319;52.038;4.640;2024-03-25T03:38:30;14.73;;;3.20;;
67456;SDS011;54319;52.038;4.640;2024-03-25T03:40:56;18.42;;;3.20;;
67456;SDS011;54319;52.038;4.640;2024-03-25T03:43:23;13.45;;;3.20;;
67456;SDS011;54319;52.038;4.640;2024-03-25T03:45:49;14.00;;;3.22;;
67456;SDS011;54319;52.038;4.640;2024-03-25T03:48:16;18.63;;;3.03;;
67456;SDS011;54319;52.038;4.640;2024-03-25T03:50:41;10.15;;;2.72;;
67456;SDS011;54319;52.038;4.640;2024-03-25T03:53:09;20.40;;;3.70;;
67456;SDS011;54319;52.038;4.640;2024-03-25T03:55:35;11.73;;;2.85;;
67456;SDS011;54319;52.038;4.640;2024-03-25T03:58:02;21.17;;;3.93;;
67456;SDS011;54319;52.038;4.640;2024-03-25T04:00:28;17.55;;;2.88;;
67456;SDS011;54319;52.038;4.640;2024-03-25T04:02:55;20.38;;;3.38;;
67456;SDS011;54319;52.038;4.640;2024-03-25T04:05:20;11.60;;;3.00;;
67456;SDS011;54319;52.038;4.640;2024-03-25T04:07:47;11.52;;;3.25;;
67456;SDS011;54319;52.038;4.640;2024-03-25T04:10:14;10.45;;;3.03;;
67456;SDS011;54319;52.038;4.640;2024-03-25T04:12:43;10.88;;;3.00;;
67456;SDS011;54319;52.038;4.640;2024-03-25T04:15:09;10.73;;;3.15;;
67456;SDS011;54319;52.038;4.640;2024-03-25T04:17:42;13.23;;;3.35;;
67456;SDS011;54319;52.038;4.640;2024-03-25T04:20:10;28.33;;;3.78;;
67456;SDS011;54319;52.038;4.640;2024-03-25T04:22:40;15.75;;;2.88;;
67456;SDS011;54319;52.038;4.640;2024-03-25T04:25:07;12.02;;;3.35;;
67456;SDS011;54319;52.038;4.640;2024-03-25T04:27:37;8.98;;;3.22;;
67456;SDS011;54319;52.038;4.640;2024-03-25T04:30:03;14.25;;;3.03;;
67456;SDS011;54319;52.038;4.640;2024-03-25T04:32:32;13.68;;;3.10;;
67456;SDS011;54319;52.038;4.640;2024-03-25T04:34:58;12.65;;;2.70;;
67456;SDS011;54319;52.038;4.640;2024-03-25T04:37:26;12.90;;;3.00;;
67456;SDS011;54319;52.038;4.640;2024-03-25T04:39:51;10.90;;;3.15;;
67456;SDS011;54319;52.038;4.640;2024-03-25T04:42:17;11.93;;;3.00;;
67456;SDS011;54319;52.038;4.640;2024-03-25T04:44:46;16.02;;;3.22;;
67456;SDS011;54319;52.038;4.640;2024-03-25T04:47:13;18.88;;;3.33;;
67456;SDS011;54319;52.038;4.640;2024-03-25T04:49:38;12.50;;;2.50;;
67456;SDS011;54319;52.038;4.640;2024-03-25T04:52:04;17.08;;;3.78;;
67456;SDS011;54319;52.038;4.640;2024-03-25T04:54:30;13.10;;;3.38;;
67456;SDS011;54319;52.038;4.640;2024-03-25T04:56:56;15.32;;;3.50;;
67456;SDS011;54319;52.038;4.640;2024-03-25T04:59:21;16.23;;;4.55;;
67456;SDS011;54319;52.038;4.640;2024-03-25T05:01:48;12.23;;;3.75;;
67456;SDS011;54319;52.038;4.640;2024-03-25T05:04:14;16.38;;;4.32;;
67456;SDS011;54319;52.038;4.640;2024-03-25T05:06:40;17.60;;;4.80;;
67456;SDS011;54319;52.038;4.640;2024-03-25T05:09:07;15.85;;;4.88;;
67456;SDS011;54319;52.038;4.640;2024-03-25T05:11:34;9.25;;;3.50;;
67456;SDS011;54319;52.038;4.640;2024-03-25T05:14:00;15.63;;;3.45;;
67456;SDS011;54319;52.038;4.640;2024-03-25T05:16:26;11.40;;;3.35;;
67456;SDS011;54319;52.038;4.640;2024-03-25T05:18:53;14.52;;;3.50;;
67456;SDS011;54319;52.038;4.640;2024-03-25T05:21:18;15.00;;;3.38;;
67456;SDS011;54319;52.038;4.640;2024-03-25T05:23:44;19.23;;;3.42;;
67456;SDS011;54319;52.038;4.640;2024-03-25T05:26:10;10.68;;;3.10;;
67456;SDS011;54319;52.038;4.640;2024-03-25T05:28:35;12.43;;;3.50;;
67456;SDS011;54319;52.038;4.640;2024-03-25T05:31:05;13.32;;;3.50;;
67456;SDS011;54319;52.038;4.640;2024-03-25T05:33:37;12.13;;;3.55;;
67456;SDS011;54319;52.038;4.640;2024-03-25T05:36:06;13.52;;;4.07;;
67456;SDS011;54319;52.038;4.640;2024-03-25T05:40:58;16.25;;;3.22;;
67456;SDS011;54319;52.038;4.640;2024-03-25T05:43:23;12.25;;;2.85;;
67456;SDS011;54319;52.038;4.640;2024-03-25T05:45:52;15.70;;;3.60;;
67456;SDS011;54319;52.038;4.640;2024-03-25T05:48:18;21.10;;;3.53;;
67456;SDS011;54319;52.038;4.640;2024-03-25T05:50:44;11.20;;;2.78;;
67456;SDS011;54319;52.038;4.640;2024-03-25T05:53:11;13.35;;;3.90;;
67456;SDS011;54319;52.038;4.640;2024-03-25T05:55:37;12.63;;;3.28;;
67456;SDS011;54319;52.038;4.640;2024-03-25T05:58:03;11.48;;;3.50;;
67456;SDS011;54319;52.038;4.640;2024-03-25T06:00:29;10.77;;;3.20;;
67456;SDS011;54319;52.038;4.640;2024-03-25T06:02:55;12.73;;;3.53;;
67456;SDS011;54319;52.038;4.640;2024-03-25T06:05:21;15.60;;;3.22;;
67456;SDS011;54319;52.038;4.640;2024-03-25T06:07:48;10.75;;;3.67;;
67456;SDS011;54319;52.038;4.640;2024-03-25T06:10:15;12.90;;;3.40;;
67456;SDS011;54319;52.038;4.640;2024-03-25T06:12:41;21.02;;;3.80;;
67456;SDS011;54319;52.038;4.640;2024-03-25T06:15:07;15.82;;;3.95;;
67456;SDS011;54319;52.038;4.640;2024-03-25T06:17:33;11.90;;;3.20;;
67456;SDS011;54319;52.038;4.640;2024-03-25T06:19:59;13.05;;;3.15;;
67456;SDS011;54319;52.038;4.640;2024-03-25T06:22:25;12.52;;;3.50;;
67456;SDS011;54319;52.038;4.640;2024-03-25T06:24:50;28.70;;;5.03;;
67456;SDS011;54319;52.038;4.640;2024-03-25T06:27:17;19.33;;;3.97;;
67456;SDS011;54319;52.038;4.640;2024-03-25T06:29:43;20.67;;;4.88;;
67456;SDS011;54319;52.038;4.640;2024-03-25T06:32:08;14.90;;;3.72;;
67456;SDS011;54319;52.038;4.640;2024-03-25T06:34:52;15.90;;;3.33;;
67456;SDS011;54319;52.038;4.640;2024-03-25T06:37:18;14.70;;;4.00;;
67456;SDS011;54319;52.038;4.640;2024-03-25T06:39:44;19.08;;;4.43;;
67456;SDS011;54319;52.038;4.640;2024-03-25T06:42:09;19.67;;;5.15;;
67456;SDS011;54319;52.038;4.640;2024-03-25T06:44:37;23.92;;;4.38;;
67456;SDS011;54319;52.038;4.640;2024-03-25T06:47:04;14.07;;;4.18;;
67456;SDS011;54319;52.038;4.640;2024-03-25T06:49:29;17.02;;;4.43;;
67456;SDS011;54319;52.038;4.640;2024-03-25T06:51:55;17.38;;;4.05;;
67456;SDS011;54319;52.038;4.640;2024-03-25T06:54:21;20.92;;;4.72;;
67456;SDS011;54319;52.038;4.640;2024-03-25T06:56:47;19.83;;;4.43;;
67456;SDS011;54319;52.038;4.640;2024-03-25T06:59:12;19.17;;;4.88;;
67456;SDS011;54319;52.038;4.640;2024-03-25T07:01:41;25.52;;;4.57;;
67456;SDS011;54319;52.038;4.640;2024-03-25T07:04:07;16.20;;;4.53;;
67456;SDS011;54319;52.038;4.640;2024-03-25T07:06:32;22.95;;;4.88;;
67456;SDS011;54319;52.038;4.640;2024-03-25T07:08:58;18.50;;;4.93;;
67456;SDS011;54319;52.038;4.640;2024-03-25T07:11:23;14.52;;;4.43;;
67456;SDS011;54319;52.038;4.640;2024-03-25T07:13:49;16.75;;;5.25;;
67456;SDS011;54319;52.038;4.640;2024-03-25T07:16:15;16.42;;;4.78;;
67456;SDS011;54319;52.038;4.640;2024-03-25T07:18:42;21.83;;;5.18;;
67456;SDS011;54319;52.038;4.640;2024-03-25T07:21:08;13.98;;;4.80;;
67456;SDS011;54319;52.038;4.640;2024-03-25T07:23:34;18.70;;;4.47;;
67456;SDS011;54319;52.038;4.640;2024-03-25T07:26:00;20.42;;;4.18;;
67456;SDS011;54319;52.038;4.640;2024-03-25T07:28:26;14.25;;;4.30;;
67456;SDS011;54319;52.038;4.640;2024-03-25T07:30:52;15.50;;;4.55;;
67456;SDS011;54319;52.038;4.640;2024-03-25T07:33:18;13.68;;;4.40;;
67456;SDS011;54319;52.038;4.640;2024-03-25T07:35:46;21.25;;;5.07;;
67456;SDS011;54319;52.038;4.640;2024-03-25T07:38:11;21.77;;;5.95;;
67456;SDS011;54319;52.038;4.640;2024-03-25T07:40:37;22.67;;;6.20;;
67456;SDS011;54319;52.038;4.640;2024-03-25T07:43:03;18.00;;;6.90;;
67456;SDS011;54319;52.038;4.640;2024-03-25T07:45:29;20.10;;;6.75;;
67456;SDS011;54319;52.038;4.640;2024-03-25T07:47:55;17.27;;;6.55;;
67456;SDS011;54319;52.038;4.640;2024-03-25T07:50:20;16.20;;;6.95;;
67456;SDS011;54319;52.038;4.640;2024-03-25T07:52:47;17.52;;;6.90;;
67456;SDS011;54319;52.038;4.640;2024-03-25T07:55:13;18.13;;;6.75;;
67456;SDS011;54319;52.038;4.640;2024-03-25T07:57:39;17.63;;;6.57;;
67456;SDS011;54319;52.038;4.640;2024-03-25T08:00:05;20.17;;;6.90;;
67456;SDS011;54319;52.038;4.640;2024-03-25T08:02:32;12.63;;;5.85;;
67456;SDS011;54319;52.038;4.640;2024-03-25T08:04:57;21.20;;;6.65;;
67456;SDS011;54319;52.038;4.640;2024-03-25T08:07:23;17.58;;;6.93;;
67456;SDS011;54319;52.038;4.640;2024-03-25T08:09:50;17.63;;;7.05;;
67456;SDS011;54319;52.038;4.640;2024-03-25T08:12:15;22.17;;;7.00;;
67456;SDS011;54319;52.038;4.640;2024-03-25T08:14:41;16.00;;;6.88;;
67456;SDS011;54319;52.038;4.640;2024-03-25T08:17:07;14.82;;;6.32;;
67456;SDS011;54319;52.038;4.640;2024-03-25T08:19:33;15.05;;;6.45;;
67456;SDS011;54319;52.038;4.640;2024-03-25T08:21:58;12.75;;;6.20;;
67456;SDS011;54319;52.038;4.640;2024-03-25T08:24:24;18.42;;;7.03;;
67456;SDS011;54319;52.038;4.640;2024-03-25T08:26:51;16.65;;;6.57;;
67456;SDS011;54319;52.038;4.640;2024-03-25T08:29:17;14.95;;;5.88;;
67456;SDS011;54319;52.038;4.640;2024-03-25T08:31:42;15.90;;;7.25;;
67456;SDS011;54319;52.038;4.640;2024-03-25T08:34:09;14.35;;;7.00;;
67456;SDS011;54319;52.038;4.640;2024-03-25T08:36:35;11.75;;;7.00;;
67456;SDS011;54319;52.038;4.640;2024-03-25T08:39:01;18.20;;;7.07;;
67456;SDS011;54319;52.038;4.640;2024-03-25T08:41:28;16.25;;;7.38;;
67456;SDS011;54319;52.038;4.640;2024-03-25T08:43:55;21.15;;;7.40;;
67456;SDS011;54319;52.038;4.640;2024-03-25T08:46:21;16.10;;;7.78;;
67456;SDS011;54319;52.038;4.640;2024-03-25T08:48:47;13.60;;;7.22;;
67456;SDS011;54319;52.038;4.640;2024-03-25T08:51:13;18.05;;;7.30;;
67456;SDS011;54319;52.038;4.640;2024-03-25T08:53:38;16.30;;;7.80;;
67456;SDS011;54319;52.038;4.640;2024-03-25T08:56:04;17.23;;;7.60;;
67456;SDS011;54319;52.038;4.640;2024-03-25T08:58:30;12.55;;;7.35;;
67456;SDS011;54319;52.038;4.640;2024-03-25T09:00:57;17.10;;;7.43;;
67456;SDS011;54319;52.038;4.640;2024-03-25T09:03:23;15.20;;;7.75;;
67456;SDS011;54319;52.038;4.640;2024-03-25T09:05:49;22.63;;;9.10;;
67456;SDS011;54319;52.038;4.640;2024-03-25T09:08:14;17.70;;;8.15;;
67456;SDS011;54319;52.038;4.640;2024-03-25T09:10:43;21.25;;;8.50;;
67456;SDS011;54319;52.038;4.640;2024-03-25T09:13:27;15.98;;;8.15;;
67456;SDS011;54319;52.038;4.640;2024-03-25T09:15:53;17.48;;;8.15;;
67456;SDS011;54319;52.038;4.640;2024-03-25T09:18:20;14.02;;;7.72;;
67456;SDS011;54319;52.038;4.640;2024-03-25T09:20:46;15.00;;;7.22;;
67456;SDS011;54319;52.038;4.640;2024-03-25T09:23:11;14.98;;;7.40;;
67456;SDS011;54319;52.038;4.640;2024-03-25T09:25:38;11.63;;;6.55;;
67456;SDS011;54319;52.038;4.640;2024-03-25T09:28:04;20.40;;;6.80;;
67456;SDS011;54319;52.038;4.640;2024-03-25T09:30:31;15.13;;;7.28;;
67456;SDS011;54319;52.038;4.640;2024-03-25T09:32:56;12.18;;;6.78;;
67456;SDS011;54319;52.038;4.640;2024-03-25T09:35:23;15.50;;;7.20;;
67456;SDS011;54319;52.038;4.640;2024-03-25T09:37:49;12.05;;;6.65;;
67456;SDS011;54319;52.038;4.640;2024-03-25T09:40:15;14.52;;;6.82;;
67456;SDS011;54319;52.038;4.640;2024-03-25T09:42:42;15.10;;;6.70;;
67456;SDS011;54319;52.038;4.640;2024-03-25T09:45:12;13.25;;;6.88;;
67456;SDS011;54319;52.038;4.640;2024-03-25T09:47:42;11.90;;;6.45;;
67456;SDS011;54319;52.038;4.640;2024-03-25T09:50:12;14.68;;;6.50;;
67456;SDS011;54319;52.038;4.640;2024-03-25T09:52:40;12.00;;;6.60;;
67456;SDS011;54319;52.038;4.640;2024-03-25T09:55:07;15.63;;;7.22;;
67456;SDS011;54319;52.038;4.640;2024-03-25T09:59:59;12.55;;;7.20;;
67456;SDS011;54319;52.038;4.640;2024-03-25T10:02:25;18.27;;;8.50;;
67456;SDS011;54319;52.038;4.640;2024-03-25T10:04:53;20.23;;;8.07;;
67456;SDS011;54319;52.038;4.640;2024-03-25T10:07:21;12.57;;;7.20;;
67456;SDS011;54319;52.038;4.640;2024-03-25T10:09:48;14.48;;;6.45;;
67456;SDS011;54319;52.038;4.640;2024-03-25T10:12:14;17.75;;;7.97;;
67456;SDS011;54319;52.038;4.640;2024-03-25T10:14:40;23.50;;;8.48;;
67456;SDS011;54319;52.038;4.640;2024-03-25T10:17:07;17.98;;;9.82;;
67456;SDS011;54319;52.038;4.640;2024-03-25T10:19:33;22.23;;;9.32;;
67456;SDS011;54319;52.038;4.640;2024-03-25T10:22:03;17.98;;;9.85;;
67456;SDS011;54319;52.038;4.640;2024-03-25T10:24:37;16.23;;;9.52;;
67456;SDS011;54319;52.038;4.640;2024-03-25T10:27:05;19.92;;;9.82;;
67456;SDS011;54319;52.038;4.640;2024-03-25T10:29:30;16.52;;;9.15;;
67456;SDS011;54319;52.038;4.640;2024-03-25T10:31:59;19.98;;;9.40;;
67456;SDS011;54319;52.038;4.640;2024-03-25T10:34:25;21.63;;;10.20;;
67456;SDS011;54319;52.038;4.640;2024-03-25T10:36:51;19.13;;;10.73;;
67456;SDS011;54319;52.038;4.640;2024-03-25T10:39:21;18.73;;;8.85;;
67456;SDS011;54319;52.038;4.640;2024-03-25T10:41:50;22.90;;;10.18;;
67456;SDS011;54319;52.038;4.640;2024-03-25T10:44:18;19.55;;;10.63;;
67456;SDS011;54319;52.038;4.640;2024-03-25T10:49:11;19.20;;;10.02;;
67456;SDS011;54319;52.038;4.640;2024-03-25T10:51:46;18.55;;;10.35;;
67456;SDS011;54319;52.038;4.640;2024-03-25T10:54:15;25.15;;;11.18;;
67456;SDS011;54319;52.038;4.640;2024-03-25T10:56:41;17.13;;;10.80;;
67456;SDS011;54319;52.038;4.640;2024-03-25T10:59:07;22.90;;;11.80;;
67456;SDS011;54319;52.038;4.640;2024-03-25T11:01:35;19.02;;;11.35;;
67456;SDS011;54319;52.038;4.640;2024-03-25T11:04:01;22.48;;;10.35;;
67456;SDS011;54319;52.038;4.640;2024-03-25T11:06:27;17.52;;;9.50;;
67456;SDS011;54319;52.038;4.640;2024-03-25T11:08:55;18.73;;;9.18;;
67456;SDS011;54319;52.038;4.640;2024-03-25T11:11:22;16.38;;;9.13;;
67456;SDS011;54319;52.038;4.640;2024-03-25T11:13:48;16.45;;;9.20;;
67456;SDS011;54319;52.038;4.640;2024-03-25T11:16:25;16.83;;;9.32;;
67456;SDS011;54319;52.038;4.640;2024-03-25T11:18:53;15.68;;;9.90;;
67456;SDS011;54319;52.038;4.640;2024-03-25T11:21:24;17.45;;;9.52;;
67456;SDS011;54319;52.038;4.640;2024-03-25T11:23:50;16.50;;;8.00;;
67456;SDS011;54319;52.038;4.640;2024-03-25T11:26:16;23.92;;;10.55;;
67456;SDS011;54319;52.038;4.640;2024-03-25T11:28:43;16.08;;;9.45;;
67456;SDS011;54319;52.038;4.640;2024-03-25T11:31:09;13.98;;;7.07;;
67456;SDS011;54319;52.038;4.640;2024-03-25T11:33:36;14.25;;;7.43;;
67456;SDS011;54319;52.038;4.640;2024-03-25T11:36:05;15.00;;;7.40;;
67456;SDS011;54319;52.038;4.640;2024-03-25T11:38:31;14.07;;;7.07;;
67456;SDS011;54319;52.038;4.640;2024-03-25T11:40:57;12.85;;;7.05;;
67456;SDS011;54319;52.038;4.640;2024-03-25T11:43:23;14.27;;;6.25;;
67456;SDS011;54319;52.038;4.640;2024-03-25T11:45:49;15.07;;;5.10;;
67456;SDS011;54319;52.038;4.640;2024-03-25T11:48:15;11.02;;;5.55;;
67456;SDS011;54319;52.038;4.640;2024-03-25T11:50:41;10.65;;;5.38;;
67456;SDS011;54319;52.038;4.640;2024-03-25T11:53:11;8.13;;;3.58;;
67456;SDS011;54319;52.038;4.640;2024-03-25T11:55:38;8.32;;;4.18;;
67456;SDS011;54319;52.038;4.640;2024-03-25T12:00:32;6.85;;;3.28;;
67456;SDS011;54319;52.038;4.640;2024-03-25T12:02:57;8.07;;;4.13;;
67456;SDS011;54319;52.038;4.640;2024-03-25T12:05:23;7.65;;;4.05;;
67456;SDS011;54319;52.038;4.640;2024-03-25T12:07:49;7.65;;;4.20;;
67456;SDS011;54319;52.038;4.640;2024-03-25T12:10:16;9.35;;;3.85;;
67456;SDS011;54319;52.038;4.640;2024-03-25T12:13:01;8.18;;;3.30;;
67456;SDS011;54319;52.038;4.640;2024-03-25T12:15:28;8.27;;;3.70;;
67456;SDS011;54319;52.038;4.640;2024-03-25T12:17:53;10.38;;;4.38;;
67456;SDS011;54319;52.038;4.640;2024-03-25T12:22:48;8.68;;;4.13;;
67456;SDS011;54319;52.038;4.640;2024-03-25T12:27:40;10.80;;;4.00;;
67456;SDS011;54319;52.038;4.640;2024-03-25T12:30:06;6.88;;;3.42;;
67456;SDS011;54319;52.038;4.640;2024-03-25T12:32:36;7.10;;;3.25;;
67456;SDS011;54319;52.038;4.640;2024-03-25T12:35:03;6.40;;;3.28;;
67456;SDS011;54319;52.038;4.640;2024-03-25T12:37:32;8.80;;;3.90;;
67456;SDS011;54319;52.038;4.640;2024-03-25T12:39:57;6.55;;;3.65;;
67456;SDS011;54319;52.038;4.640;2024-03-25T12:42:23;8.40;;;4.00;;
67456;SDS011;54319;52.038;4.640;2024-03-25T12:44:50;7.35;;;3.65;;
67456;SDS011;54319;52.038;4.640;2024-03-25T12:47:16;8.15;;;4.07;;
67456;SDS011;54319;52.038;4.640;2024-03-25T12:49:42;9.98;;;4.65;;
67456;SDS011;54319;52.038;4.640;2024-03-25T12:52:07;10.45;;;4.75;;
67456;SDS011;54319;52.038;4.640;2024-03-25T12:54:34;9.88;;;4.82;;
67456;SDS011;54319;52.038;4.640;2024-03-25T12:57:01;12.63;;;4.72;;
67456;SDS011;54319;52.038;4.640;2024-03-25T12:59:27;10.50;;;4.82;;
67456;SDS011;54319;52.038;4.640;2024-03-25T13:01:54;12.27;;;5.20;;
67456;SDS011;54319;52.038;4.640;2024-03-25T13:04:20;12.27;;;4.93;;
67456;SDS011;54319;52.038;4.640;2024-03-25T13:06:45;9.25;;;4.60;;
67456;SDS011;54319;52.038;4.640;2024-03-25T13:09:11;12.68;;;5.40;;
67456;SDS011;54319;52.038;4.640;2024-03-25T13:11:38;9.88;;;4.93;;
67456;SDS011;54319;52.038;4.640;2024-03-25T13:14:04;9.98;;;4.40;;
67456;SDS011;54319;52.038;4.640;2024-03-25T13:18:58;6.65;;;4.07;;
67456;SDS011;54319;52.038;4.640;2024-03-25T13:21:24;8.23;;;3.58;;
67456;SDS011;54319;52.038;4.640;2024-03-25T13:23:50;8.10;;;3.78;;
67456;SDS011;54319;52.038;4.640;2024-03-25T13:26:16;7.90;;;3.25;;
67456;SDS011;54319;52.038;4.640;2024-03-25T13:28:41;7.72;;;3.17;;
67456;SDS011;54319;52.038;4.640;2024-03-25T13:31:07;6.68;;;3.60;;
67456;SDS011;54319;52.038;4.640;2024-03-25T13:33:33;5.57;;;2.85;;
67456;SDS011;54319;52.038;4.640;2024-03-25T13:36:00;9.15;;;3.00;;
67456;SDS011;54319;52.038;4.640;2024-03-25T13:38:25;6.32;;;3.13;;
67456;SDS011;54319;52.038;4.640;2024-03-25T13:40:51;6.35;;;3.10;;
67456;SDS011;54319;52.038;4.640;2024-03-25T13:43:17;5.85;;;3.00;;
67456;SDS011;54319;52.038;4.640;2024-03-25T13:45:46;5.72;;;2.90;;
67456;SDS011;54319;52.038;4.640;2024-03-25T13:48:13;6.30;;;3.17;;
67456;SDS011;54319;52.038;4.640;2024-03-25T13:50:40;8.20;;;3.33;;
67456;SDS011;54319;52.038;4.640;2024-03-25T13:53:07;6.45;;;2.90;;
67456;SDS011;54319;52.038;4.640;2024-03-25T13:55:32;5.55;;;2.65;;
67456;SDS011;54319;52.038;4.640;2024-03-25T13:57:58;7.78;;;2.80;;
67456;SDS011;54319;52.038;4.640;2024-03-25T14:00:24;6.45;;;3.00;;
67456;SDS011;54319;52.038;4.640;2024-03-25T14:02:49;7.22;;;3.30;;
67456;SDS011;54319;52.038;4.640;2024-03-25T14:05:15;7.00;;;3.17;;
67456;SDS011;54319;52.038;4.640;2024-03-25T14:07:41;6.47;;;2.75;;
67456;SDS011;54319;52.038;4.640;2024-03-25T14:10:08;4.03;;;2.42;;
67456;SDS011;54319;52.038;4.640;2024-03-25T14:12:36;4.47;;;2.33;;
67456;SDS011;54319;52.038;4.640;2024-03-25T14:15:01;5.40;;;2.65;;
67456;SDS011;54319;52.038;4.640;2024-03-25T14:17:27;6.43;;;2.92;;
67456;SDS011;54319;52.038;4.640;2024-03-25T14:19:53;4.75;;;2.67;;
67456;SDS011;54319;52.038;4.640;2024-03-25T14:22:20;5.32;;;2.88;;
67456;SDS011;54319;52.038;4.640;2024-03-25T14:24:46;5.57;;;2.90;;
67456;SDS011;54319;52.038;4.640;2024-03-25T14:27:13;7.50;;;3.05;;
67456;SDS011;54319;52.038;4.640;2024-03-25T14:29:39;6.18;;;2.85;;
67456;SDS011;54319;52.038;4.640;2024-03-25T14:32:05;5.15;;;2.42;;
67456;SDS011;54319;52.038;4.640;2024-03-25T14:34:31;7.32;;;2.78;;
67456;SDS011;54319;52.038;4.640;2024-03-25T14:36:56;5.40;;;2.80;;
67456;SDS011;54319;52.038;4.640;2024-03-25T14:39:22;4.80;;;2.60;;
67456;SDS011;54319;52.038;4.640;2024-03-25T14:41:48;5.00;;;2.83;;
67456;SDS011;54319;52.038;4.640;2024-03-25T14:44:15;5.75;;;2.83;;
67456;SDS011;54319;52.038;4.640;2024-03-25T14:46:42;5.57;;;2.90;;
67456;SDS011;54319;52.038;4.640;2024-03-25T14:49:08;9.90;;;3.13;;
67456;SDS011;54319;52.038;4.640;2024-03-25T14:51:34;6.25;;;3.00;;